Terminal Aerodrome Forecast
Issued by NWS Kansas City/Pleasant Hill, MO

Home | Current Version | Previous Version | Text Only | Print | Product List | Glossary On
Versions: 1 2 3 4 5 6 7 8 9 10 11 12 13 14 15 16 17 18
000
FTUS43 KEAX 231700
TAFMCI
TAF
KMCI 231720Z 2318/2418 15011KT P6SM OVC020
     FM232100 13011KT P6SM VCSH OVC020
     FM240100 12010KT 6SM -SHRA OVC018
     FM240600 15015G25KT 4SM RA BR OVC008=

USA.gov is the U.S. government's official web portal to all federal, state and local government web resources and services.